sensor_id;sensor_type;location;lat;lon;timestamp;P1;durP1;ratioP1;P2;durP2;ratioP2
78646;SDS011;67961;43.460;3.762;2023-06-10T00:00:48;23.08;;;8.20;;
78646;SDS011;67961;43.460;3.762;2023-06-10T00:03:16;23.30;;;8.80;;
78646;SDS011;67961;43.460;3.762;2023-06-10T00:05:42;30.77;;;9.38;;
78646;SDS011;67961;43.460;3.762;2023-06-10T00:08:08;26.75;;;9.38;;
78646;SDS011;67961;43.460;3.762;2023-06-10T00:10:36;22.55;;;8.63;;
78646;SDS011;67961;43.460;3.762;2023-06-10T00:13:03;25.40;;;9.25;;
78646;SDS011;67961;43.460;3.762;2023-06-10T00:15:29;15.80;;;7.93;;
78646;SDS011;67961;43.460;3.762;2023-06-10T00:17:55;24.92;;;7.65;;
78646;SDS011;67961;43.460;3.762;2023-06-10T00:20:21;21.73;;;8.27;;
78646;SDS011;67961;43.460;3.762;2023-06-10T00:22:49;18.63;;;7.25;;
78646;SDS011;67961;43.460;3.762;2023-06-10T00:25:15;25.27;;;8.20;;
78646;SDS011;67961;43.460;3.762;2023-06-10T00:27:41;16.83;;;7.35;;
78646;SDS011;67961;43.460;3.762;2023-06-10T00:30:08;17.98;;;8.02;;
78646;SDS011;67961;43.460;3.762;2023-06-10T00:32:34;16.27;;;7.75;;
78646;SDS011;67961;43.460;3.762;2023-06-10T00:35:01;17.08;;;8.13;;
78646;SDS011;67961;43.460;3.762;2023-06-10T00:37:29;21.25;;;7.82;;
78646;SDS011;67961;43.460;3.762;2023-06-10T00:39:57;16.42;;;7.75;;
78646;SDS011;67961;43.460;3.762;2023-06-10T00:42:23;18.33;;;8.18;;
78646;SDS011;67961;43.460;3.762;2023-06-10T00:44:53;23.77;;;8.55;;
78646;SDS011;67961;43.460;3.762;2023-06-10T00:47:19;18.55;;;8.50;;
78646;SDS011;67961;43.460;3.762;2023-06-10T00:49:46;28.52;;;8.60;;
78646;SDS011;67961;43.460;3.762;2023-06-10T00:52:12;19.55;;;8.32;;
78646;SDS011;67961;43.460;3.762;2023-06-10T00:54:39;22.17;;;8.43;;
78646;SDS011;67961;43.460;3.762;2023-06-10T00:57:05;19.30;;;8.90;;
78646;SDS011;67961;43.460;3.762;2023-06-10T00:59:31;20.63;;;8.25;;
78646;SDS011;67961;43.460;3.762;2023-06-10T01:01:57;22.45;;;8.10;;
78646;SDS011;67961;43.460;3.762;2023-06-10T01:04:23;19.38;;;8.40;;
78646;SDS011;67961;43.460;3.762;2023-06-10T01:06:54;19.00;;;7.95;;
78646;SDS011;67961;43.460;3.762;2023-06-10T01:11:59;17.83;;;8.30;;
78646;SDS011;67961;43.460;3.762;2023-06-10T01:16:54;16.85;;;7.25;;
78646;SDS011;67961;43.460;3.762;2023-06-10T01:19:21;20.95;;;8.70;;
78646;SDS011;67961;43.460;3.762;2023-06-10T01:21:49;22.92;;;8.82;;
78646;SDS011;67961;43.460;3.762;2023-06-10T01:24:16;20.35;;;9.10;;
78646;SDS011;67961;43.460;3.762;2023-06-10T01:26:44;14.23;;;8.20;;
78646;SDS011;67961;43.460;3.762;2023-06-10T01:29:28;15.45;;;8.63;;
78646;SDS011;67961;43.460;3.762;2023-06-10T01:32:01;21.67;;;8.07;;
78646;SDS011;67961;43.460;3.762;2023-06-10T01:34:29;17.75;;;8.98;;
78646;SDS011;67961;43.460;3.762;2023-06-10T01:36:57;18.05;;;10.32;;
78646;SDS011;67961;43.460;3.762;2023-06-10T01:39:26;20.48;;;9.13;;
78646;SDS011;67961;43.460;3.762;2023-06-10T01:41:52;23.10;;;8.80;;
78646;SDS011;67961;43.460;3.762;2023-06-10T01:44:19;18.40;;;7.95;;
78646;SDS011;67961;43.460;3.762;2023-06-10T01:46:45;23.75;;;8.55;;
78646;SDS011;67961;43.460;3.762;2023-06-10T01:49:11;15.63;;;8.23;;
78646;SDS011;67961;43.460;3.762;2023-06-10T01:51:38;18.27;;;8.18;;
78646;SDS011;67961;43.460;3.762;2023-06-10T01:54:04;21.85;;;9.27;;
78646;SDS011;67961;43.460;3.762;2023-06-10T01:56:31;17.25;;;9.10;;
78646;SDS011;67961;43.460;3.762;2023-06-10T01:58:57;15.75;;;8.00;;
78646;SDS011;67961;43.460;3.762;2023-06-10T02:01:27;27.48;;;8.77;;
78646;SDS011;67961;43.460;3.762;2023-06-10T02:03:53;19.63;;;8.70;;
78646;SDS011;67961;43.460;3.762;2023-06-10T02:06:19;17.77;;;9.45;;
78646;SDS011;67961;43.460;3.762;2023-06-10T02:08:45;19.23;;;8.88;;
78646;SDS011;67961;43.460;3.762;2023-06-10T02:11:11;21.77;;;9.38;;
78646;SDS011;67961;43.460;3.762;2023-06-10T02:13:40;22.58;;;8.88;;
78646;SDS011;67961;43.460;3.762;2023-06-10T02:16:06;20.92;;;8.05;;
78646;SDS011;67961;43.460;3.762;2023-06-10T02:18:32;21.35;;;8.60;;
78646;SDS011;67961;43.460;3.762;2023-06-10T02:20:58;18.98;;;8.75;;
78646;SDS011;67961;43.460;3.762;2023-06-10T02:23:24;22.33;;;8.90;;
78646;SDS011;67961;43.460;3.762;2023-06-10T02:25:53;21.80;;;9.20;;
78646;SDS011;67961;43.460;3.762;2023-06-10T02:28:19;24.73;;;8.18;;
78646;SDS011;67961;43.460;3.762;2023-06-10T02:30:45;17.02;;;8.80;;
78646;SDS011;67961;43.460;3.762;2023-06-10T02:33:11;28.92;;;8.38;;
78646;SDS011;67961;43.460;3.762;2023-06-10T02:35:41;24.20;;;8.68;;
78646;SDS011;67961;43.460;3.762;2023-06-10T02:38:07;20.63;;;8.93;;
78646;SDS011;67961;43.460;3.762;2023-06-10T02:40:33;23.20;;;8.05;;
78646;SDS011;67961;43.460;3.762;2023-06-10T02:42:59;30.35;;;9.32;;
78646;SDS011;67961;43.460;3.762;2023-06-10T02:45:25;27.15;;;9.93;;
78646;SDS011;67961;43.460;3.762;2023-06-10T02:47:51;22.90;;;9.35;;
78646;SDS011;67961;43.460;3.762;2023-06-10T02:50:17;22.98;;;9.60;;
78646;SDS011;67961;43.460;3.762;2023-06-10T02:52:43;17.33;;;8.95;;
78646;SDS011;67961;43.460;3.762;2023-06-10T02:55:13;23.98;;;9.32;;
78646;SDS011;67961;43.460;3.762;2023-06-10T02:57:39;19.77;;;10.02;;
78646;SDS011;67961;43.460;3.762;2023-06-10T03:00:05;20.15;;;9.90;;
78646;SDS011;67961;43.460;3.762;2023-06-10T03:02:39;20.85;;;10.02;;
78646;SDS011;67961;43.460;3.762;2023-06-10T03:05:06;21.75;;;9.63;;
78646;SDS011;67961;43.460;3.762;2023-06-10T03:07:35;18.23;;;9.27;;
78646;SDS011;67961;43.460;3.762;2023-06-10T03:10:01;22.63;;;9.13;;
78646;SDS011;67961;43.460;3.762;2023-06-10T03:12:27;21.15;;;10.23;;
78646;SDS011;67961;43.460;3.762;2023-06-10T03:14:53;20.67;;;9.27;;
78646;SDS011;67961;43.460;3.762;2023-06-10T03:17:19;24.10;;;10.13;;
78646;SDS011;67961;43.460;3.762;2023-06-10T03:19:46;19.63;;;9.05;;
78646;SDS011;67961;43.460;3.762;2023-06-10T03:22:16;21.52;;;9.85;;
78646;SDS011;67961;43.460;3.762;2023-06-10T03:24:42;26.75;;;10.13;;
78646;SDS011;67961;43.460;3.762;2023-06-10T03:27:12;24.80;;;9.55;;
78646;SDS011;67961;43.460;3.762;2023-06-10T03:29:38;24.55;;;9.35;;
78646;SDS011;67961;43.460;3.762;2023-06-10T03:32:04;25.15;;;9.95;;
78646;SDS011;67961;43.460;3.762;2023-06-10T03:34:31;21.45;;;8.27;;
78646;SDS011;67961;43.460;3.762;2023-06-10T03:36:57;18.80;;;9.77;;
78646;SDS011;67961;43.460;3.762;2023-06-10T03:39:23;25.48;;;10.02;;
78646;SDS011;67961;43.460;3.762;2023-06-10T03:41:49;17.85;;;8.65;;
78646;SDS011;67961;43.460;3.762;2023-06-10T03:44:16;25.42;;;10.55;;
78646;SDS011;67961;43.460;3.762;2023-06-10T03:46:45;19.85;;;9.25;;
78646;SDS011;67961;43.460;3.762;2023-06-10T03:49:12;13.35;;;8.05;;
78646;SDS011;67961;43.460;3.762;2023-06-10T03:51:40;21.23;;;10.60;;
78646;SDS011;67961;43.460;3.762;2023-06-10T03:54:06;19.45;;;10.43;;
78646;SDS011;67961;43.460;3.762;2023-06-10T03:56:32;18.88;;;10.65;;
78646;SDS011;67961;43.460;3.762;2023-06-10T03:58:58;22.85;;;12.45;;
78646;SDS011;67961;43.460;3.762;2023-06-10T04:01:24;21.98;;;11.60;;
78646;SDS011;67961;43.460;3.762;2023-06-10T04:03:50;22.17;;;12.50;;
78646;SDS011;67961;43.460;3.762;2023-06-10T04:06:19;28.90;;;13.32;;
78646;SDS011;67961;43.460;3.762;2023-06-10T04:08:45;19.33;;;11.85;;
78646;SDS011;67961;43.460;3.762;2023-06-10T04:11:11;26.23;;;13.05;;
78646;SDS011;67961;43.460;3.762;2023-06-10T04:13:37;19.17;;;12.55;;
78646;SDS011;67961;43.460;3.762;2023-06-10T04:16:03;21.33;;;12.43;;
78646;SDS011;67961;43.460;3.762;2023-06-10T04:18:29;28.80;;;14.25;;
78646;SDS011;67961;43.460;3.762;2023-06-10T04:20:55;35.08;;;15.40;;
78646;SDS011;67961;43.460;3.762;2023-06-10T04:23:21;25.95;;;13.32;;
78646;SDS011;67961;43.460;3.762;2023-06-10T04:25:47;24.77;;;13.05;;
78646;SDS011;67961;43.460;3.762;2023-06-10T04:28:13;26.25;;;12.40;;
78646;SDS011;67961;43.460;3.762;2023-06-10T04:30:39;23.52;;;12.27;;
78646;SDS011;67961;43.460;3.762;2023-06-10T04:33:06;27.92;;;12.52;;
78646;SDS011;67961;43.460;3.762;2023-06-10T04:35:34;27.35;;;13.02;;
78646;SDS011;67961;43.460;3.762;2023-06-10T04:38:00;24.70;;;12.80;;
78646;SDS011;67961;43.460;3.762;2023-06-10T04:40:28;34.67;;;12.80;;
78646;SDS011;67961;43.460;3.762;2023-06-10T04:42:54;20.70;;;11.43;;
78646;SDS011;67961;43.460;3.762;2023-06-10T04:45:20;28.15;;;11.73;;
78646;SDS011;67961;43.460;3.762;2023-06-10T04:47:47;21.63;;;11.15;;
78646;SDS011;67961;43.460;3.762;2023-06-10T04:50:13;28.50;;;11.32;;
78646;SDS011;67961;43.460;3.762;2023-06-10T04:52:39;18.25;;;11.32;;
78646;SDS011;67961;43.460;3.762;2023-06-10T04:55:06;24.10;;;11.77;;
78646;SDS011;67961;43.460;3.762;2023-06-10T04:57:33;22.80;;;10.02;;
78646;SDS011;67961;43.460;3.762;2023-06-10T04:59:58;20.40;;;10.63;;
78646;SDS011;67961;43.460;3.762;2023-06-10T05:02:24;19.23;;;9.40;;
78646;SDS011;67961;43.460;3.762;2023-06-10T05:04:53;19.67;;;9.50;;
78646;SDS011;67961;43.460;3.762;2023-06-10T05:07:20;25.15;;;10.25;;
78646;SDS011;67961;43.460;3.762;2023-06-10T05:09:49;20.23;;;9.70;;
78646;SDS011;67961;43.460;3.762;2023-06-10T05:12:15;15.82;;;9.85;;
78646;SDS011;67961;43.460;3.762;2023-06-10T05:14:41;21.33;;;10.00;;
78646;SDS011;67961;43.460;3.762;2023-06-10T05:17:07;21.23;;;9.80;;
78646;SDS011;67961;43.460;3.762;2023-06-10T05:19:33;15.98;;;8.70;;
78646;SDS011;67961;43.460;3.762;2023-06-10T05:22:00;17.20;;;8.45;;
78646;SDS011;67961;43.460;3.762;2023-06-10T05:24:27;11.30;;;7.75;;
78646;SDS011;67961;43.460;3.762;2023-06-10T05:26:53;12.98;;;8.65;;
78646;SDS011;67961;43.460;3.762;2023-06-10T05:29:19;13.30;;;8.38;;
78646;SDS011;67961;43.460;3.762;2023-06-10T05:31:45;10.48;;;7.28;;
78646;SDS011;67961;43.460;3.762;2023-06-10T05:34:11;10.48;;;7.10;;
78646;SDS011;67961;43.460;3.762;2023-06-10T05:36:37;10.38;;;6.22;;
78646;SDS011;67961;43.460;3.762;2023-06-10T05:39:03;13.80;;;6.97;;
78646;SDS011;67961;43.460;3.762;2023-06-10T05:41:30;13.27;;;7.25;;
78646;SDS011;67961;43.460;3.762;2023-06-10T05:43:56;15.15;;;6.57;;
78646;SDS011;67961;43.460;3.762;2023-06-10T05:46:21;11.63;;;6.35;;
78646;SDS011;67961;43.460;3.762;2023-06-10T05:48:48;12.98;;;5.95;;
78646;SDS011;67961;43.460;3.762;2023-06-10T05:51:14;11.05;;;5.68;;
78646;SDS011;67961;43.460;3.762;2023-06-10T05:53:40;11.10;;;5.65;;
78646;SDS011;67961;43.460;3.762;2023-06-10T05:56:06;10.63;;;5.82;;
78646;SDS011;67961;43.460;3.762;2023-06-10T05:58:32;11.70;;;5.88;;
78646;SDS011;67961;43.460;3.762;2023-06-10T06:00:58;14.00;;;6.25;;
78646;SDS011;67961;43.460;3.762;2023-06-10T06:03:24;11.95;;;5.97;;
78646;SDS011;67961;43.460;3.762;2023-06-10T06:05:50;7.10;;;5.20;;
78646;SDS011;67961;43.460;3.762;2023-06-10T06:08:16;10.75;;;5.63;;
78646;SDS011;67961;43.460;3.762;2023-06-10T06:10:44;9.23;;;5.38;;
78646;SDS011;67961;43.460;3.762;2023-06-10T06:13:10;12.05;;;5.47;;
78646;SDS011;67961;43.460;3.762;2023-06-10T06:15:36;8.32;;;4.75;;
78646;SDS011;67961;43.460;3.762;2023-06-10T06:18:02;10.65;;;6.32;;
78646;SDS011;67961;43.460;3.762;2023-06-10T06:20:28;6.70;;;4.65;;
78646;SDS011;67961;43.460;3.762;2023-06-10T06:22:54;9.15;;;5.22;;
78646;SDS011;67961;43.460;3.762;2023-06-10T06:25:20;10.48;;;5.50;;
78646;SDS011;67961;43.460;3.762;2023-06-10T06:27:47;9.82;;;5.03;;
78646;SDS011;67961;43.460;3.762;2023-06-10T06:30:13;10.30;;;4.80;;
78646;SDS011;67961;43.460;3.762;2023-06-10T06:32:39;10.65;;;5.30;;
78646;SDS011;67961;43.460;3.762;2023-06-10T06:35:05;10.70;;;4.65;;
78646;SDS011;67961;43.460;3.762;2023-06-10T06:37:33;10.18;;;4.63;;
78646;SDS011;67961;43.460;3.762;2023-06-10T06:40:00;6.63;;;3.83;;
78646;SDS011;67961;43.460;3.762;2023-06-10T06:42:26;6.93;;;3.95;;
78646;SDS011;67961;43.460;3.762;2023-06-10T06:44:52;6.03;;;4.05;;
78646;SDS011;67961;43.460;3.762;2023-06-10T06:47:18;6.75;;;4.25;;
78646;SDS011;67961;43.460;3.762;2023-06-10T06:49:47;7.63;;;4.13;;
78646;SDS011;67961;43.460;3.762;2023-06-10T06:52:14;10.85;;;4.18;;
78646;SDS011;67961;43.460;3.762;2023-06-10T06:54:40;10.57;;;4.60;;
78646;SDS011;67961;43.460;3.762;2023-06-10T06:57:06;6.93;;;3.83;;
78646;SDS011;67961;43.460;3.762;2023-06-10T06:59:33;12.15;;;4.38;;
78646;SDS011;67961;43.460;3.762;2023-06-10T07:01:59;11.20;;;4.43;;
78646;SDS011;67961;43.460;3.762;2023-06-10T07:04:28;7.05;;;4.00;;
78646;SDS011;67961;43.460;3.762;2023-06-10T07:06:54;6.45;;;3.47;;
78646;SDS011;67961;43.460;3.762;2023-06-10T07:09:20;8.15;;;4.05;;
78646;SDS011;67961;43.460;3.762;2023-06-10T07:11:46;7.50;;;3.70;;
78646;SDS011;67961;43.460;3.762;2023-06-10T07:14:12;8.05;;;4.05;;
78646;SDS011;67961;43.460;3.762;2023-06-10T07:16:38;6.70;;;3.58;;
78646;SDS011;67961;43.460;3.762;2023-06-10T07:19:04;11.82;;;3.75;;
78646;SDS011;67961;43.460;3.762;2023-06-10T07:21:30;7.65;;;3.95;;
78646;SDS011;67961;43.460;3.762;2023-06-10T07:23:57;5.95;;;3.83;;
78646;SDS011;67961;43.460;3.762;2023-06-10T07:26:23;8.95;;;3.97;;
78646;SDS011;67961;43.460;3.762;2023-06-10T07:28:50;7.15;;;3.50;;
78646;SDS011;67961;43.460;3.762;2023-06-10T07:31:16;8.68;;;4.55;;
78646;SDS011;67961;43.460;3.762;2023-06-10T07:33:42;9.65;;;4.07;;
78646;SDS011;67961;43.460;3.762;2023-06-10T07:36:09;7.63;;;3.80;;
78646;SDS011;67961;43.460;3.762;2023-06-10T07:38:35;9.82;;;3.63;;
78646;SDS011;67961;43.460;3.762;2023-06-10T07:41:01;6.68;;;3.80;;
78646;SDS011;67961;43.460;3.762;2023-06-10T07:43:29;8.18;;;3.53;;
78646;SDS011;67961;43.460;3.762;2023-06-10T07:45:58;7.40;;;3.47;;
78646;SDS011;67961;43.460;3.762;2023-06-10T07:48:25;5.07;;;3.10;;
78646;SDS011;67961;43.460;3.762;2023-06-10T07:50:51;6.25;;;4.03;;
78646;SDS011;67961;43.460;3.762;2023-06-10T07:53:17;8.63;;;3.90;;
78646;SDS011;67961;43.460;3.762;2023-06-10T07:55:43;8.93;;;3.58;;
78646;SDS011;67961;43.460;3.762;2023-06-10T07:58:10;7.25;;;3.50;;
78646;SDS011;67961;43.460;3.762;2023-06-10T08:00:36;9.48;;;3.95;;
78646;SDS011;67961;43.460;3.762;2023-06-10T08:03:02;6.43;;;3.40;;
78646;SDS011;67961;43.460;3.762;2023-06-10T08:05:28;7.35;;;3.50;;
78646;SDS011;67961;43.460;3.762;2023-06-10T08:07:54;4.78;;;3.00;;
78646;SDS011;67961;43.460;3.762;2023-06-10T08:10:20;4.13;;;2.95;;
78646;SDS011;67961;43.460;3.762;2023-06-10T08:12:46;5.00;;;3.10;;
78646;SDS011;67961;43.460;3.762;2023-06-10T08:15:12;8.40;;;2.90;;
78646;SDS011;67961;43.460;3.762;2023-06-10T08:17:38;5.80;;;3.33;;
78646;SDS011;67961;43.460;3.762;2023-06-10T08:20:05;4.80;;;3.10;;
78646;SDS011;67961;43.460;3.762;2023-06-10T08:22:31;7.70;;;3.40;;
78646;SDS011;67961;43.460;3.762;2023-06-10T08:24:58;7.65;;;3.05;;
78646;SDS011;67961;43.460;3.762;2023-06-10T08:27:24;7.50;;;3.60;;
78646;SDS011;67961;43.460;3.762;2023-06-10T08:29:50;5.75;;;3.15;;
78646;SDS011;67961;43.460;3.762;2023-06-10T08:32:16;6.28;;;3.25;;
78646;SDS011;67961;43.460;3.762;2023-06-10T08:34:42;7.25;;;3.35;;
78646;SDS011;67961;43.460;3.762;2023-06-10T08:37:08;7.97;;;3.08;;
78646;SDS011;67961;43.460;3.762;2023-06-10T08:39:34;4.53;;;2.90;;
78646;SDS011;67961;43.460;3.762;2023-06-10T08:44:27;4.57;;;3.10;;
78646;SDS011;67961;43.460;3.762;2023-06-10T08:46:55;6.00;;;3.33;;
78646;SDS011;67961;43.460;3.762;2023-06-10T08:49:21;8.95;;;2.97;;
78646;SDS011;67961;43.460;3.762;2023-06-10T08:51:50;6.40;;;3.10;;
78646;SDS011;67961;43.460;3.762;2023-06-10T08:54:23;6.00;;;3.30;;
78646;SDS011;67961;43.460;3.762;2023-06-10T08:56:51;4.80;;;2.97;;
78646;SDS011;67961;43.460;3.762;2023-06-10T08:59:17;4.95;;;3.38;;
78646;SDS011;67961;43.460;3.762;2023-06-10T09:01:43;5.75;;;3.30;;
78646;SDS011;67961;43.460;3.762;2023-06-10T09:04:10;7.78;;;3.05;;
78646;SDS011;67961;43.460;3.762;2023-06-10T09:06:36;7.95;;;3.33;;
78646;SDS011;67961;43.460;3.762;2023-06-10T09:09:03;4.38;;;3.28;;
78646;SDS011;67961;43.460;3.762;2023-06-10T09:11:31;6.60;;;3.40;;
78646;SDS011;67961;43.460;3.762;2023-06-10T09:13:57;6.78;;;3.25;;
78646;SDS011;67961;43.460;3.762;2023-06-10T09:16:24;7.88;;;3.00;;
78646;SDS011;67961;43.460;3.762;2023-06-10T09:18:50;6.88;;;3.50;;
78646;SDS011;67961;43.460;3.762;2023-06-10T09:21:21;7.07;;;3.05;;
78646;SDS011;67961;43.460;3.762;2023-06-10T09:23:47;6.10;;;3.65;;
78646;SDS011;67961;43.460;3.762;2023-06-10T09:26:13;9.30;;;3.95;;
78646;SDS011;67961;43.460;3.762;2023-06-10T09:28:41;12.75;;;3.40;;
78646;SDS011;67961;43.460;3.762;2023-06-10T09:31:07;4.78;;;3.13;;
78646;SDS011;67961;43.460;3.762;2023-06-10T09:33:36;7.70;;;3.33;;
78646;SDS011;67961;43.460;3.762;2023-06-10T09:36:03;6.18;;;3.20;;
78646;SDS011;67961;43.460;3.762;2023-06-10T09:38:34;7.15;;;3.65;;
78646;SDS011;67961;43.460;3.762;2023-06-10T09:41:00;4.57;;;3.40;;
78646;SDS011;67961;43.460;3.762;2023-06-10T09:43:45;7.35;;;3.50;;
78646;SDS011;67961;43.460;3.762;2023-06-10T09:46:15;5.05;;;3.03;;
78646;SDS011;67961;43.460;3.762;2023-06-10T09:48:42;5.32;;;3.50;;
78646;SDS011;67961;43.460;3.762;2023-06-10T09:51:09;9.25;;;3.10;;
78646;SDS011;67961;43.460;3.762;2023-06-10T09:53:36;6.85;;;3.38;;
78646;SDS011;67961;43.460;3.762;2023-06-10T09:56:02;7.15;;;3.30;;
78646;SDS011;67961;43.460;3.762;2023-06-10T09:58:34;9.25;;;3.55;;
78646;SDS011;67961;43.460;3.762;2023-06-10T10:01:04;7.68;;;3.17;;
78646;SDS011;67961;43.460;3.762;2023-06-10T10:03:30;8.30;;;4.55;;
78646;SDS011;67961;43.460;3.762;2023-06-10T10:05:59;7.30;;;3.63;;
78646;SDS011;67961;43.460;3.762;2023-06-10T10:08:26;8.98;;;3.40;;
78646;SDS011;67961;43.460;3.762;2023-06-10T10:10:52;7.10;;;3.42;;
78646;SDS011;67961;43.460;3.762;2023-06-10T10:13:18;7.85;;;3.38;;
78646;SDS011;67961;43.460;3.762;2023-06-10T10:15:45;8.23;;;4.18;;
78646;SDS011;67961;43.460;3.762;2023-06-10T10:18:11;10.68;;;4.72;;
78646;SDS011;67961;43.460;3.762;2023-06-10T10:20:50;8.15;;;3.38;;
78646;SDS011;67961;43.460;3.762;2023-06-10T10:26:09;7.72;;;3.53;;
78646;SDS011;67961;43.460;3.762;2023-06-10T10:28:45;4.30;;;3.15;;
78646;SDS011;67961;43.460;3.762;2023-06-10T10:31:12;7.53;;;3.10;;
78646;SDS011;67961;43.460;3.762;2023-06-10T10:36:07;5.57;;;3.47;;
78646;SDS011;67961;43.460;3.762;2023-06-10T10:38:34;8.43;;;3.42;;
78646;SDS011;67961;43.460;3.762;2023-06-10T10:41:00;10.70;;;3.40;;
78646;SDS011;67961;43.460;3.762;2023-06-10T10:43:27;5.30;;;3.28;;
78646;SDS011;67961;43.460;3.762;2023-06-10T10:46:00;8.77;;;3.42;;
78646;SDS011;67961;43.460;3.762;2023-06-10T10:48:26;9.82;;;4.05;;
78646;SDS011;67961;43.460;3.762;2023-06-10T10:50:57;8.63;;;3.72;;
78646;SDS011;67961;43.460;3.762;2023-06-10T10:53:24;11.10;;;3.55;;
78646;SDS011;67961;43.460;3.762;2023-06-10T10:58:31;8.52;;;3.38;;
78646;SDS011;67961;43.460;3.762;2023-06-10T11:00:58;7.82;;;3.35;;
78646;SDS011;67961;43.460;3.762;2023-06-10T11:03:27;7.72;;;3.55;;
78646;SDS011;67961;43.460;3.762;2023-06-10T11:05:53;8.20;;;3.78;;
78646;SDS011;67961;43.460;3.762;2023-06-10T11:10:54;6.57;;;3.47;;
78646;SDS011;67961;43.460;3.762;2023-06-10T11:13:21;7.60;;;3.80;;
78646;SDS011;67961;43.460;3.762;2023-06-10T11:15:48;6.93;;;3.75;;
78646;SDS011;67961;43.460;3.762;2023-06-10T11:28:39;8.15;;;4.20;;
78646;SDS011;67961;43.460;3.762;2023-06-10T11:31:05;6.50;;;3.70;;
78646;SDS011;67961;43.460;3.762;2023-06-10T11:33:31;12.13;;;4.00;;
78646;SDS011;67961;43.460;3.762;2023-06-10T11:35:57;11.10;;;4.13;;
78646;SDS011;67961;43.460;3.762;2023-06-10T11:38:23;13.48;;;4.88;;
78646;SDS011;67961;43.460;3.762;2023-06-10T11:40:50;9.68;;;4.13;;
78646;SDS011;67961;43.460;3.762;2023-06-10T11:43:16;7.35;;;3.75;;
78646;SDS011;67961;43.460;3.762;2023-06-10T11:45:43;11.45;;;4.18;;
78646;SDS011;67961;43.460;3.762;2023-06-10T11:48:09;8.63;;;3.88;;
78646;SDS011;67961;43.460;3.762;2023-06-10T11:50:36;11.40;;;4.32;;
78646;SDS011;67961;43.460;3.762;2023-06-10T11:53:02;9.55;;;3.88;;
78646;SDS011;67961;43.460;3.762;2023-06-10T11:55:45;9.07;;;3.88;;
78646;SDS011;67961;43.460;3.762;2023-06-10T11:58:21;8.85;;;3.70;;
78646;SDS011;67961;43.460;3.762;2023-06-10T12:00:51;9.75;;;3.60;;
78646;SDS011;67961;43.460;3.762;2023-06-10T12:03:18;10.70;;;4.30;;
78646;SDS011;67961;43.460;3.762;2023-06-10T12:06:04;11.30;;;3.92;;
78646;SDS011;67961;43.460;3.762;2023-06-10T12:08:30;9.13;;;3.42;;
78646;SDS011;67961;43.460;3.762;2023-06-10T12:10:56;8.77;;;4.13;;
78646;SDS011;67961;43.460;3.762;2023-06-10T12:13:23;9.18;;;3.83;;
78646;SDS011;67961;43.460;3.762;2023-06-10T12:15:49;8.48;;;4.05;;
78646;SDS011;67961;43.460;3.762;2023-06-10T12:18:19;8.52;;;4.28;;
78646;SDS011;67961;43.460;3.762;2023-06-10T12:20:45;12.32;;;5.07;;
78646;SDS011;67961;43.460;3.762;2023-06-10T12:23:12;9.98;;;4.28;;
78646;SDS011;67961;43.460;3.762;2023-06-10T12:25:38;10.75;;;4.72;;
78646;SDS011;67961;43.460;3.762;2023-06-10T12:28:05;8.90;;;4.72;;
78646;SDS011;67961;43.460;3.762;2023-06-10T12:30:31;10.35;;;4.63;;
78646;SDS011;67961;43.460;3.762;2023-06-10T12:32:58;9.50;;;5.10;;
78646;SDS011;67961;43.460;3.762;2023-06-10T12:35:25;9.40;;;4.50;;
78646;SDS011;67961;43.460;3.762;2023-06-10T12:37:58;10.05;;;4.93;;
78646;SDS011;67961;43.460;3.762;2023-06-10T12:40:30;10.50;;;4.47;;
78646;SDS011;67961;43.460;3.762;2023-06-10T12:42:56;8.45;;;4.55;;
78646;SDS011;67961;43.460;3.762;2023-06-10T12:45:26;13.15;;;4.68;;
78646;SDS011;67961;43.460;3.762;2023-06-10T12:48:03;11.38;;;4.32;;
78646;SDS011;67961;43.460;3.762;2023-06-10T12:50:30;12.85;;;4.40;;
78646;SDS011;67961;43.460;3.762;2023-06-10T12:52:56;18.80;;;12.45;;
78646;SDS011;67961;43.460;3.762;2023-06-10T12:55:22;14.13;;;5.35;;
78646;SDS011;67961;43.460;3.762;2023-06-10T12:57:49;9.20;;;4.85;;
78646;SDS011;67961;43.460;3.762;2023-06-10T13:00:15;13.27;;;5.57;;
78646;SDS011;67961;43.460;3.762;2023-06-10T13:02:42;11.18;;;4.88;;
78646;SDS011;67961;43.460;3.762;2023-06-10T13:05:08;8.82;;;4.63;;
78646;SDS011;67961;43.460;3.762;2023-06-10T13:07:34;9.10;;;4.88;;
78646;SDS011;67961;43.460;3.762;2023-06-10T13:10:00;12.35;;;5.32;;
78646;SDS011;67961;43.460;3.762;2023-06-10T13:12:27;9.73;;;4.80;;
78646;SDS011;67961;43.460;3.762;2023-06-10T13:14:54;11.90;;;5.28;;
78646;SDS011;67961;43.460;3.762;2023-06-10T13:17:20;11.15;;;4.85;;
78646;SDS011;67961;43.460;3.762;2023-06-10T13:19:46;13.68;;;5.47;;
78646;SDS011;67961;43.460;3.762;2023-06-10T13:22:13;14.95;;;5.35;;
78646;SDS011;67961;43.460;3.762;2023-06-10T13:24:39;9.32;;;4.97;;
78646;SDS011;67961;43.460;3.762;2023-06-10T13:27:08;8.00;;;5.18;;
78646;SDS011;67961;43.460;3.762;2023-06-10T13:29:34;14.20;;;6.05;;
78646;SDS011;67961;43.460;3.762;2023-06-10T13:32:00;10.80;;;5.88;;
78646;SDS011;67961;43.460;3.762;2023-06-10T13:34:26;9.95;;;4.50;;
78646;SDS011;67961;43.460;3.762;2023-06-10T13:36:53;12.52;;;5.47;;
78646;SDS011;67961;43.460;3.762;2023-06-10T13:39:19;11.43;;;4.47;;
78646;SDS011;67961;43.460;3.762;2023-06-10T13:41:45;13.23;;;5.47;;
78646;SDS011;67961;43.460;3.762;2023-06-10T13:44:11;11.55;;;5.28;;
78646;SDS011;67961;43.460;3.762;2023-06-10T13:46:37;9.15;;;4.43;;
78646;SDS011;67961;43.460;3.762;2023-06-10T13:49:03;12.73;;;4.80;;
78646;SDS011;67961;43.460;3.762;2023-06-10T13:51:29;7.50;;;4.45;;
78646;SDS011;67961;43.460;3.762;2023-06-10T13:53:55;11.25;;;4.90;;
78646;SDS011;67961;43.460;3.762;2023-06-10T13:56:21;10.32;;;4.50;;
78646;SDS011;67961;43.460;3.762;2023-06-10T13:58:48;10.73;;;4.45;;
78646;SDS011;67961;43.460;3.762;2023-06-10T14:01:14;13.57;;;5.68;;
78646;SDS011;67961;43.460;3.762;2023-06-10T14:03:40;10.48;;;4.72;;
78646;SDS011;67961;43.460;3.762;2023-06-10T14:06:06;10.07;;;4.95;;
78646;SDS011;67961;43.460;3.762;2023-06-10T14:08:32;11.77;;;5.30;;
78646;SDS011;67961;43.460;3.762;2023-06-10T14:10:58;10.75;;;4.95;;
78646;SDS011;67961;43.460;3.762;2023-06-10T14:13:24;12.15;;;5.65;;
78646;SDS011;67961;43.460;3.762;2023-06-10T14:15:50;10.30;;;6.03;;
78646;SDS011;67961;43.460;3.762;2023-06-10T14:18:16;9.02;;;5.13;;
78646;SDS011;67961;43.460;3.762;2023-06-10T14:20:42;7.53;;;5.03;;
78646;SDS011;67961;43.460;3.762;2023-06-10T14:23:08;9.55;;;5.07;;
78646;SDS011;67961;43.460;3.762;2023-06-10T14:25:34;14.50;;;5.55;;
78646;SDS011;67961;43.460;3.762;2023-06-10T14:28:00;14.57;;;5.18;;
78646;SDS011;67961;43.460;3.762;2023-06-10T14:30:27;12.55;;;5.53;;
78646;SDS011;67961;43.460;3.762;2023-06-10T14:32:53;12.10;;;4.90;;
78646;SDS011;67961;43.460;3.762;2023-06-10T14:35:19;12.13;;;5.57;;
78646;SDS011;67961;43.460;3.762;2023-06-10T14:37:46;12.90;;;5.65;;
78646;SDS011;67961;43.460;3.762;2023-06-10T14:40:12;13.27;;;5.75;;
78646;SDS011;67961;43.460;3.762;2023-06-10T14:42:38;12.10;;;5.95;;
78646;SDS011;67961;43.460;3.762;2023-06-10T14:45:04;11.35;;;5.75;;
78646;SDS011;67961;43.460;3.762;2023-06-10T14:47:31;11.05;;;5.53;;
78646;SDS011;67961;43.460;3.762;2023-06-10T14:49:57;9.93;;;5.30;;
78646;SDS011;67961;43.460;3.762;2023-06-10T14:52:23;12.57;;;5.93;;
78646;SDS011;67961;43.460;3.762;2023-06-10T14:54:49;13.18;;;5.55;;
78646;SDS011;67961;43.460;3.762;2023-06-10T14:57:15;10.45;;;4.60;;
78646;SDS011;67961;43.460;3.762;2023-06-10T14:59:41;10.65;;;4.35;;
78646;SDS011;67961;43.460;3.762;2023-06-10T15:02:07;9.63;;;4.30;;
78646;SDS011;67961;43.460;3.762;2023-06-10T15:04:33;10.38;;;4.32;;